sensor_id;sensor_type;location;lat;lon;timestamp;P1;durP1;ratioP1;P2;durP2;ratioP2
43519;SDS011;46848;51.980;5.918;2022-09-09T00:02:05;8.25;;;5.43;;
43519;SDS011;46848;51.980;5.918;2022-09-09T00:04:46;8.00;;;5.20;;
43519;SDS011;46848;51.980;5.918;2022-09-09T00:07:52;5.45;;;3.58;;
43519;SDS011;46848;51.980;5.918;2022-09-09T00:10:26;4.80;;;3.33;;
43519;SDS011;46848;51.980;5.918;2022-09-09T00:15:52;4.32;;;2.38;;
43519;SDS011;46848;51.980;5.918;2022-09-09T00:18:32;3.78;;;2.03;;
43519;SDS011;46848;51.980;5.918;2022-09-09T00:21:13;3.78;;;1.60;;
43519;SDS011;46848;51.980;5.918;2022-09-09T00:23:44;3.88;;;1.88;;
43519;SDS011;46848;51.980;5.918;2022-09-09T00:31:39;4.57;;;1.63;;
43519;SDS011;46848;51.980;5.918;2022-09-09T00:34:09;2.17;;;1.45;;
43519;SDS011;46848;51.980;5.918;2022-09-09T00:36:40;4.10;;;1.52;;
43519;SDS011;46848;51.980;5.918;2022-09-09T00:39:10;3.25;;;1.38;;
43519;SDS011;46848;51.980;5.918;2022-09-09T00:41:59;2.65;;;1.30;;
43519;SDS011;46848;51.980;5.918;2022-09-09T00:44:32;3.33;;;1.23;;
43519;SDS011;46848;51.980;5.918;2022-09-09T00:50:17;2.33;;;1.20;;
43519;SDS011;46848;51.980;5.918;2022-09-09T00:58:21;3.88;;;1.48;;
43519;SDS011;46848;51.980;5.918;2022-09-09T01:00:49;3.00;;;1.40;;
43519;SDS011;46848;51.980;5.918;2022-09-09T01:06:12;3.58;;;1.52;;
43519;SDS011;46848;51.980;5.918;2022-09-09T01:14:47;3.75;;;1.40;;
43519;SDS011;46848;51.980;5.918;2022-09-09T01:22:26;2.95;;;1.15;;
43519;SDS011;46848;51.980;5.918;2022-09-09T01:25:29;2.15;;;1.00;;
43519;SDS011;46848;51.980;5.918;2022-09-09T01:28:05;3.10;;;1.30;;
43519;SDS011;46848;51.980;5.918;2022-09-09T01:30:37;2.15;;;0.90;;
43519;SDS011;46848;51.980;5.918;2022-09-09T01:33:05;3.83;;;1.38;;
43519;SDS011;46848;51.980;5.918;2022-09-09T01:35:37;3.47;;;1.15;;
43519;SDS011;46848;51.980;5.918;2022-09-09T01:38:11;3.58;;;1.40;;
43519;SDS011;46848;51.980;5.918;2022-09-09T01:40:37;2.70;;;1.00;;
43519;SDS011;46848;51.980;5.918;2022-09-09T01:43:03;3.90;;;1.00;;
43519;SDS011;46848;51.980;5.918;2022-09-09T01:45:30;3.15;;;1.20;;
43519;SDS011;46848;51.980;5.918;2022-09-09T01:47:56;2.35;;;1.35;;
43519;SDS011;46848;51.980;5.918;2022-09-09T01:50:22;2.58;;;1.40;;
43519;SDS011;46848;51.980;5.918;2022-09-09T01:52:52;2.97;;;1.10;;
43519;SDS011;46848;51.980;5.918;2022-09-09T01:55:25;3.05;;;1.27;;
43519;SDS011;46848;51.980;5.918;2022-09-09T02:00:53;3.80;;;1.60;;
43519;SDS011;46848;51.980;5.918;2022-09-09T02:03:27;2.53;;;0.95;;
43519;SDS011;46848;51.980;5.918;2022-09-09T02:06:20;3.83;;;0.95;;
43519;SDS011;46848;51.980;5.918;2022-09-09T02:08:52;3.80;;;1.30;;
43519;SDS011;46848;51.980;5.918;2022-09-09T02:11:25;2.45;;;0.80;;
43519;SDS011;46848;51.980;5.918;2022-09-09T02:13:53;1.67;;;0.93;;
43519;SDS011;46848;51.980;5.918;2022-09-09T02:16:37;3.53;;;1.20;;
43519;SDS011;46848;51.980;5.918;2022-09-09T02:21:59;2.53;;;1.15;;
43519;SDS011;46848;51.980;5.918;2022-09-09T02:24:27;3.30;;;0.90;;
43519;SDS011;46848;51.980;5.918;2022-09-09T02:26:56;2.10;;;0.95;;
43519;SDS011;46848;51.980;5.918;2022-09-09T02:29:25;2.55;;;1.10;;
43519;SDS011;46848;51.980;5.918;2022-09-09T02:32:01;1.98;;;0.80;;
43519;SDS011;46848;51.980;5.918;2022-09-09T02:34:33;1.02;;;0.63;;
43519;SDS011;46848;51.980;5.918;2022-09-09T02:37:04;2.35;;;0.80;;
43519;SDS011;46848;51.980;5.918;2022-09-09T02:39:33;2.30;;;1.13;;
43519;SDS011;46848;51.980;5.918;2022-09-09T02:41:59;2.95;;;1.20;;
43519;SDS011;46848;51.980;5.918;2022-09-09T02:44:24;5.07;;;1.20;;
43519;SDS011;46848;51.980;5.918;2022-09-09T02:49:30;2.47;;;1.23;;
43519;SDS011;46848;51.980;5.918;2022-09-09T02:52:33;2.10;;;0.95;;
43519;SDS011;46848;51.980;5.918;2022-09-09T02:55:07;2.00;;;1.15;;
43519;SDS011;46848;51.980;5.918;2022-09-09T02:57:39;2.28;;;1.30;;
43519;SDS011;46848;51.980;5.918;2022-09-09T03:00:06;1.90;;;1.20;;
43519;SDS011;46848;51.980;5.918;2022-09-09T03:02:33;3.30;;;1.38;;
43519;SDS011;46848;51.980;5.918;2022-09-09T03:04:58;2.33;;;1.27;;
43519;SDS011;46848;51.980;5.918;2022-09-09T03:07:24;2.92;;;1.30;;
43519;SDS011;46848;51.980;5.918;2022-09-09T03:09:49;2.63;;;1.13;;
43519;SDS011;46848;51.980;5.918;2022-09-09T03:12:15;2.50;;;1.02;;
43519;SDS011;46848;51.980;5.918;2022-09-09T03:14:41;2.88;;;1.35;;
43519;SDS011;46848;51.980;5.918;2022-09-09T03:17:08;4.05;;;1.50;;
43519;SDS011;46848;51.980;5.918;2022-09-09T03:19:34;3.90;;;1.40;;
43519;SDS011;46848;51.980;5.918;2022-09-09T03:22:01;2.20;;;1.15;;
43519;SDS011;46848;51.980;5.918;2022-09-09T03:24:26;2.45;;;1.20;;
43519;SDS011;46848;51.980;5.918;2022-09-09T03:26:52;3.13;;;1.27;;
43519;SDS011;46848;51.980;5.918;2022-09-09T03:29:18;5.25;;;1.60;;
43519;SDS011;46848;51.980;5.918;2022-09-09T03:31:44;3.50;;;1.40;;
43519;SDS011;46848;51.980;5.918;2022-09-09T03:34:10;2.92;;;1.58;;
43519;SDS011;46848;51.980;5.918;2022-09-09T03:36:36;3.55;;;1.50;;
43519;SDS011;46848;51.980;5.918;2022-09-09T03:39:02;5.15;;;1.70;;
43519;SDS011;46848;51.980;5.918;2022-09-09T03:41:28;3.58;;;1.60;;
43519;SDS011;46848;51.980;5.918;2022-09-09T03:43:55;4.80;;;1.48;;
43519;SDS011;46848;51.980;5.918;2022-09-09T03:46:21;3.53;;;2.05;;
43519;SDS011;46848;51.980;5.918;2022-09-09T03:48:49;4.38;;;1.70;;
43519;SDS011;46848;51.980;5.918;2022-09-09T03:51:15;3.28;;;1.73;;
43519;SDS011;46848;51.980;5.918;2022-09-09T03:53:42;3.90;;;1.50;;
43519;SDS011;46848;51.980;5.918;2022-09-09T03:56:08;4.45;;;2.00;;
43519;SDS011;46848;51.980;5.918;2022-09-09T03:58:34;3.75;;;1.48;;
43519;SDS011;46848;51.980;5.918;2022-09-09T04:01:01;3.42;;;1.58;;
43519;SDS011;46848;51.980;5.918;2022-09-09T04:03:29;4.18;;;1.77;;
43519;SDS011;46848;51.980;5.918;2022-09-09T04:05:55;5.43;;;1.50;;
43519;SDS011;46848;51.980;5.918;2022-09-09T04:08:23;4.88;;;1.63;;
43519;SDS011;46848;51.980;5.918;2022-09-09T04:10:50;5.32;;;1.60;;
43519;SDS011;46848;51.980;5.918;2022-09-09T04:13:16;3.30;;;1.60;;
43519;SDS011;46848;51.980;5.918;2022-09-09T04:15:48;3.22;;;1.70;;
43519;SDS011;46848;51.980;5.918;2022-09-09T04:18:23;3.72;;;1.55;;
43519;SDS011;46848;51.980;5.918;2022-09-09T04:20:50;3.88;;;1.67;;
43519;SDS011;46848;51.980;5.918;2022-09-09T04:23:17;2.92;;;1.67;;
43519;SDS011;46848;51.980;5.918;2022-09-09T04:25:49;4.50;;;1.65;;
43519;SDS011;46848;51.980;5.918;2022-09-09T04:28:16;3.35;;;1.70;;
43519;SDS011;46848;51.980;5.918;2022-09-09T04:30:43;4.75;;;1.92;;
43519;SDS011;46848;51.980;5.918;2022-09-09T04:33:09;4.03;;;1.80;;
43519;SDS011;46848;51.980;5.918;2022-09-09T04:35:36;4.38;;;1.75;;
43519;SDS011;46848;51.980;5.918;2022-09-09T04:38:04;5.93;;;2.13;;
43519;SDS011;46848;51.980;5.918;2022-09-09T04:40:32;4.57;;;1.88;;
43519;SDS011;46848;51.980;5.918;2022-09-09T04:42:58;2.58;;;1.42;;
43519;SDS011;46848;51.980;5.918;2022-09-09T04:45:24;3.78;;;1.75;;
43519;SDS011;46848;51.980;5.918;2022-09-09T04:47:51;3.95;;;1.83;;
43519;SDS011;46848;51.980;5.918;2022-09-09T04:50:17;3.17;;;2.00;;
43519;SDS011;46848;51.980;5.918;2022-09-09T04:52:43;5.05;;;2.10;;
43519;SDS011;46848;51.980;5.918;2022-09-09T04:55:09;4.75;;;1.70;;
43519;SDS011;46848;51.980;5.918;2022-09-09T04:57:35;6.43;;;1.77;;
43519;SDS011;46848;51.980;5.918;2022-09-09T05:00:01;4.28;;;1.60;;
43519;SDS011;46848;51.980;5.918;2022-09-09T05:02:28;4.28;;;1.58;;
43519;SDS011;46848;51.980;5.918;2022-09-09T05:04:55;4.97;;;1.77;;
43519;SDS011;46848;51.980;5.918;2022-09-09T05:07:21;5.15;;;1.52;;
43519;SDS011;46848;51.980;5.918;2022-09-09T05:09:47;3.83;;;1.60;;
43519;SDS011;46848;51.980;5.918;2022-09-09T05:12:14;5.80;;;1.92;;
43519;SDS011;46848;51.980;5.918;2022-09-09T05:14:41;5.63;;;2.38;;
43519;SDS011;46848;51.980;5.918;2022-09-09T05:17:07;4.47;;;2.15;;
43519;SDS011;46848;51.980;5.918;2022-09-09T05:19:33;5.70;;;1.80;;
43519;SDS011;46848;51.980;5.918;2022-09-09T05:21:59;6.43;;;1.55;;
43519;SDS011;46848;51.980;5.918;2022-09-09T05:24:26;3.75;;;1.65;;
43519;SDS011;46848;51.980;5.918;2022-09-09T05:26:52;9.15;;;2.03;;
43519;SDS011;46848;51.980;5.918;2022-09-09T05:29:17;5.03;;;1.88;;
43519;SDS011;46848;51.980;5.918;2022-09-09T05:31:44;5.95;;;1.67;;
43519;SDS011;46848;51.980;5.918;2022-09-09T05:34:10;5.93;;;2.03;;
43519;SDS011;46848;51.980;5.918;2022-09-09T05:36:36;5.18;;;1.77;;
43519;SDS011;46848;51.980;5.918;2022-09-09T05:39:02;4.55;;;1.88;;
43519;SDS011;46848;51.980;5.918;2022-09-09T05:41:28;4.35;;;1.55;;
43519;SDS011;46848;51.980;5.918;2022-09-09T05:43:54;6.72;;;2.00;;
43519;SDS011;46848;51.980;5.918;2022-09-09T05:46:21;6.45;;;2.03;;
43519;SDS011;46848;51.980;5.918;2022-09-09T05:48:49;9.13;;;2.08;;
43519;SDS011;46848;51.980;5.918;2022-09-09T05:51:17;5.32;;;1.67;;
43519;SDS011;46848;51.980;5.918;2022-09-09T05:53:46;4.30;;;1.70;;
43519;SDS011;46848;51.980;5.918;2022-09-09T05:58:43;6.68;;;1.63;;
43519;SDS011;46848;51.980;5.918;2022-09-09T06:01:09;4.40;;;2.05;;
43519;SDS011;46848;51.980;5.918;2022-09-09T06:03:37;4.40;;;2.10;;
43519;SDS011;46848;51.980;5.918;2022-09-09T06:06:05;7.35;;;2.20;;
43519;SDS011;46848;51.980;5.918;2022-09-09T06:08:32;4.82;;;2.03;;
43519;SDS011;46848;51.980;5.918;2022-09-09T06:11:07;7.65;;;1.90;;
43519;SDS011;46848;51.980;5.918;2022-09-09T06:13:43;6.13;;;1.92;;
43519;SDS011;46848;51.980;5.918;2022-09-09T06:16:09;9.20;;;1.90;;
43519;SDS011;46848;51.980;5.918;2022-09-09T06:18:36;5.93;;;1.50;;
43519;SDS011;46848;51.980;5.918;2022-09-09T06:21:04;10.00;;;1.98;;
43519;SDS011;46848;51.980;5.918;2022-09-09T06:23:31;12.13;;;1.95;;
43519;SDS011;46848;51.980;5.918;2022-09-09T06:28:36;5.40;;;1.58;;
43519;SDS011;46848;51.980;5.918;2022-09-09T06:31:02;4.40;;;1.60;;
43519;SDS011;46848;51.980;5.918;2022-09-09T06:33:34;10.15;;;2.10;;
43519;SDS011;46848;51.980;5.918;2022-09-09T06:36:01;5.77;;;1.50;;
43519;SDS011;46848;51.980;5.918;2022-09-09T06:38:28;9.23;;;1.85;;
43519;SDS011;46848;51.980;5.918;2022-09-09T06:40:55;10.80;;;2.42;;
43519;SDS011;46848;51.980;5.918;2022-09-09T06:43:23;7.03;;;1.55;;
43519;SDS011;46848;51.980;5.918;2022-09-09T06:46:31;5.82;;;1.73;;
43519;SDS011;46848;51.980;5.918;2022-09-09T06:48:43;6.85;;;1.58;;
43519;SDS011;46848;51.980;5.918;2022-09-09T06:51:14;5.20;;;1.80;;
43519;SDS011;46848;51.980;5.918;2022-09-09T06:53:46;6.18;;;1.83;;
43519;SDS011;46848;51.980;5.918;2022-09-09T06:58:50;7.00;;;1.65;;
43519;SDS011;46848;51.980;5.918;2022-09-09T07:01:17;8.85;;;2.13;;
43519;SDS011;46848;51.980;5.918;2022-09-09T07:03:46;5.28;;;1.55;;
43519;SDS011;46848;51.980;5.918;2022-09-09T07:06:14;4.35;;;1.70;;
43519;SDS011;46848;51.980;5.918;2022-09-09T07:08:42;4.72;;;1.65;;
43519;SDS011;46848;51.980;5.918;2022-09-09T07:11:08;8.07;;;1.80;;
43519;SDS011;46848;51.980;5.918;2022-09-09T07:13:34;8.88;;;2.22;;
43519;SDS011;46848;51.980;5.918;2022-09-09T07:16:07;8.02;;;2.05;;
43519;SDS011;46848;51.980;5.918;2022-09-09T07:18:38;6.05;;;2.05;;
43519;SDS011;46848;51.980;5.918;2022-09-09T07:21:05;6.97;;;1.85;;
43519;SDS011;46848;51.980;5.918;2022-09-09T07:23:31;7.18;;;1.80;;
43519;SDS011;46848;51.980;5.918;2022-09-09T07:25:57;7.50;;;1.80;;
43519;SDS011;46848;51.980;5.918;2022-09-09T07:28:24;9.27;;;1.80;;
43519;SDS011;46848;51.980;5.918;2022-09-09T07:30:58;6.80;;;1.40;;
43519;SDS011;46848;51.980;5.918;2022-09-09T07:33:28;7.35;;;1.80;;
43519;SDS011;46848;51.980;5.918;2022-09-09T07:36:05;6.13;;;1.60;;
43519;SDS011;46848;51.980;5.918;2022-09-09T07:38:37;8.13;;;1.83;;
43519;SDS011;46848;51.980;5.918;2022-09-09T07:41:05;6.00;;;2.00;;
43519;SDS011;46848;51.980;5.918;2022-09-09T07:43:36;6.72;;;1.80;;
43519;SDS011;46848;51.980;5.918;2022-09-09T07:46:05;8.90;;;1.92;;
43519;SDS011;46848;51.980;5.918;2022-09-09T07:48:31;9.13;;;2.17;;
43519;SDS011;46848;51.980;5.918;2022-09-09T07:51:08;9.60;;;2.08;;
43519;SDS011;46848;51.980;5.918;2022-09-09T07:53:42;11.05;;;1.83;;
43519;SDS011;46848;51.980;5.918;2022-09-09T07:56:09;7.85;;;1.95;;
43519;SDS011;46848;51.980;5.918;2022-09-09T07:58:37;7.15;;;1.48;;
43519;SDS011;46848;51.980;5.918;2022-09-09T08:01:14;7.53;;;2.60;;
43519;SDS011;46848;51.980;5.918;2022-09-09T08:03:45;7.30;;;2.08;;
43519;SDS011;46848;51.980;5.918;2022-09-09T08:06:12;6.40;;;1.55;;
43519;SDS011;46848;51.980;5.918;2022-09-09T08:08:39;6.30;;;1.55;;
43519;SDS011;46848;51.980;5.918;2022-09-09T08:11:13;8.20;;;1.92;;
43519;SDS011;46848;51.980;5.918;2022-09-09T08:13:40;8.25;;;1.42;;
43519;SDS011;46848;51.980;5.918;2022-09-09T08:16:14;5.97;;;1.60;;
43519;SDS011;46848;51.980;5.918;2022-09-09T08:18:41;7.40;;;1.80;;
43519;SDS011;46848;51.980;5.918;2022-09-09T08:23:34;9.20;;;2.50;;
43519;SDS011;46848;51.980;5.918;2022-09-09T08:26:03;9.90;;;1.92;;
43519;SDS011;46848;51.980;5.918;2022-09-09T08:28:30;9.40;;;1.90;;
43519;SDS011;46848;51.980;5.918;2022-09-09T08:30:56;8.25;;;1.77;;
43519;SDS011;46848;51.980;5.918;2022-09-09T08:33:29;6.55;;;1.85;;
43519;SDS011;46848;51.980;5.918;2022-09-09T08:35:55;6.00;;;1.58;;
43519;SDS011;46848;51.980;5.918;2022-09-09T08:38:21;7.00;;;1.83;;
43519;SDS011;46848;51.980;5.918;2022-09-09T08:40:46;7.53;;;1.70;;
43519;SDS011;46848;51.980;5.918;2022-09-09T08:43:16;8.18;;;1.95;;
43519;SDS011;46848;51.980;5.918;2022-09-09T08:46:47;9.50;;;1.75;;
43519;SDS011;46848;51.980;5.918;2022-09-09T08:51:21;6.88;;;1.77;;
43519;SDS011;46848;51.980;5.918;2022-09-09T08:53:54;5.57;;;1.63;;
43519;SDS011;46848;51.980;5.918;2022-09-09T08:56:24;7.88;;;2.03;;
43519;SDS011;46848;51.980;5.918;2022-09-09T08:58:52;6.95;;;1.88;;
43519;SDS011;46848;51.980;5.918;2022-09-09T09:01:26;7.65;;;1.80;;
43519;SDS011;46848;51.980;5.918;2022-09-09T09:04:05;9.48;;;2.63;;
43519;SDS011;46848;51.980;5.918;2022-09-09T09:09:08;5.93;;;1.35;;
43519;SDS011;46848;51.980;5.918;2022-09-09T09:16:59;7.28;;;1.50;;
43519;SDS011;46848;51.980;5.918;2022-09-09T09:19:28;6.57;;;1.35;;
43519;SDS011;46848;51.980;5.918;2022-09-09T09:22:04;7.93;;;1.40;;
43519;SDS011;46848;51.980;5.918;2022-09-09T09:29:59;8.15;;;1.52;;
43519;SDS011;46848;51.980;5.918;2022-09-09T09:32:31;7.40;;;1.63;;
43519;SDS011;46848;51.980;5.918;2022-09-09T09:34:59;6.45;;;1.77;;
43519;SDS011;46848;51.980;5.918;2022-09-09T09:37:32;4.60;;;1.48;;
43519;SDS011;46848;51.980;5.918;2022-09-09T09:40:13;9.05;;;1.55;;
43519;SDS011;46848;51.980;5.918;2022-09-09T09:42:57;9.70;;;1.80;;
43519;SDS011;46848;51.980;5.918;2022-09-09T09:45:32;7.80;;;1.30;;
43519;SDS011;46848;51.980;5.918;2022-09-09T09:48:12;4.78;;;1.23;;
43519;SDS011;46848;51.980;5.918;2022-09-09T09:50:57;5.47;;;1.23;;
43519;SDS011;46848;51.980;5.918;2022-09-09T09:53:31;11.73;;;1.80;;
43519;SDS011;46848;51.980;5.918;2022-09-09T09:56:03;4.03;;;1.25;;
43519;SDS011;46848;51.980;5.918;2022-09-09T10:03:50;4.07;;;1.20;;
43519;SDS011;46848;51.980;5.918;2022-09-09T10:06:28;8.65;;;1.17;;
43519;SDS011;46848;51.980;5.918;2022-09-09T10:08:58;8.15;;;1.60;;
43519;SDS011;46848;51.980;5.918;2022-09-09T10:14:18;8.88;;;2.67;;
43519;SDS011;46848;51.980;5.918;2022-09-09T10:19:37;5.18;;;1.38;;
43519;SDS011;46848;51.980;5.918;2022-09-09T10:30:41;8.85;;;1.60;;
43519;SDS011;46848;51.980;5.918;2022-09-09T10:33:35;6.45;;;1.65;;
43519;SDS011;46848;51.980;5.918;2022-09-09T10:59:48;7.45;;;1.65;;
43519;SDS011;46848;51.980;5.918;2022-09-09T11:04:53;6.15;;;1.65;;
43519;SDS011;46848;51.980;5.918;2022-09-09T11:07:49;6.85;;;1.45;;
43519;SDS011;46848;51.980;5.918;2022-09-09T11:12:56;10.00;;;1.48;;
43519;SDS011;46848;51.980;5.918;2022-09-09T11:15:40;7.72;;;1.55;;
43519;SDS011;46848;51.980;5.918;2022-09-09T11:18:11;6.32;;;1.63;;
43519;SDS011;46848;51.980;5.918;2022-09-09T11:20:43;6.82;;;1.40;;
43519;SDS011;46848;51.980;5.918;2022-09-09T11:23:11;4.95;;;1.38;;
43519;SDS011;46848;51.980;5.918;2022-09-09T11:25:45;6.10;;;1.42;;
43519;SDS011;46848;51.980;5.918;2022-09-09T11:36:37;8.13;;;1.50;;
43519;SDS011;46848;51.980;5.918;2022-09-09T11:44:43;6.75;;;2.05;;
43519;SDS011;46848;51.980;5.918;2022-09-09T11:47:50;6.47;;;1.60;;
43519;SDS011;46848;51.980;5.918;2022-09-09T11:52:37;5.80;;;1.13;;
43519;SDS011;46848;51.980;5.918;2022-09-09T11:55:24;4.90;;;1.10;;
43519;SDS011;46848;51.980;5.918;2022-09-09T11:58:01;5.03;;;1.30;;
43519;SDS011;46848;51.980;5.918;2022-09-09T12:00:35;7.13;;;1.42;;
43519;SDS011;46848;51.980;5.918;2022-09-09T12:03:02;5.88;;;1.10;;
43519;SDS011;46848;51.980;5.918;2022-09-09T12:08:24;4.78;;;1.02;;
43519;SDS011;46848;51.980;5.918;2022-09-09T12:10:57;5.72;;;1.85;;
43519;SDS011;46848;51.980;5.918;2022-09-09T12:13:28;3.63;;;0.90;;
43519;SDS011;46848;51.980;5.918;2022-09-09T12:15:54;5.35;;;1.83;;
43519;SDS011;46848;51.980;5.918;2022-09-09T12:18:39;4.95;;;1.00;;
43519;SDS011;46848;51.980;5.918;2022-09-09T12:23:52;8.40;;;1.88;;
43519;SDS011;46848;51.980;5.918;2022-09-09T12:34:55;7.97;;;1.35;;
43519;SDS011;46848;51.980;5.918;2022-09-09T12:40:28;5.43;;;1.10;;
43519;SDS011;46848;51.980;5.918;2022-09-09T12:42:57;4.05;;;1.17;;
43519;SDS011;46848;51.980;5.918;2022-09-09T12:45:26;6.25;;;1.80;;
43519;SDS011;46848;51.980;5.918;2022-09-09T12:48:03;5.82;;;1.40;;
43519;SDS011;46848;51.980;5.918;2022-09-09T12:50:48;3.78;;;1.25;;
43519;SDS011;46848;51.980;5.918;2022-09-09T12:53:20;5.15;;;1.10;;
43519;SDS011;46848;51.980;5.918;2022-09-09T12:55:52;6.30;;;1.42;;
43519;SDS011;46848;51.980;5.918;2022-09-09T12:58:20;3.95;;;1.10;;
43519;SDS011;46848;51.980;5.918;2022-09-09T13:00:50;3.50;;;1.27;;
43519;SDS011;46848;51.980;5.918;2022-09-09T13:03:18;6.68;;;1.67;;
43519;SDS011;46848;51.980;5.918;2022-09-09T13:05:48;3.22;;;1.05;;
43519;SDS011;46848;51.980;5.918;2022-09-09T13:08:14;2.97;;;0.90;;
43519;SDS011;46848;51.980;5.918;2022-09-09T13:11:01;4.90;;;1.30;;
43519;SDS011;46848;51.980;5.918;2022-09-09T13:13:34;6.20;;;1.20;;
43519;SDS011;46848;51.980;5.918;2022-09-09T13:16:01;5.70;;;1.30;;
43519;SDS011;46848;51.980;5.918;2022-09-09T13:18:34;5.03;;;1.20;;
43519;SDS011;46848;51.980;5.918;2022-09-09T13:21:03;2.08;;;0.70;;
43519;SDS011;46848;51.980;5.918;2022-09-09T13:23:30;3.78;;;1.42;;
43519;SDS011;46848;51.980;5.918;2022-09-09T13:26:02;5.85;;;1.60;;
43519;SDS011;46848;51.980;5.918;2022-09-09T13:28:31;3.58;;;1.00;;
43519;SDS011;46848;51.980;5.918;2022-09-09T13:33:28;3.97;;;1.45;;
43519;SDS011;46848;51.980;5.918;2022-09-09T13:36:06;7.05;;;1.40;;
43519;SDS011;46848;51.980;5.918;2022-09-09T13:38:37;4.57;;;1.50;;
43519;SDS011;46848;51.980;5.918;2022-09-09T13:41:19;4.20;;;1.15;;
43519;SDS011;46848;51.980;5.918;2022-09-09T13:43:49;5.55;;;1.48;;
43519;SDS011;46848;51.980;5.918;2022-09-09T13:46:35;6.95;;;1.38;;
43519;SDS011;46848;51.980;5.918;2022-09-09T13:51:44;4.60;;;1.58;;
43519;SDS011;46848;51.980;5.918;2022-09-09T13:54:16;3.92;;;1.20;;
43519;SDS011;46848;51.980;5.918;2022-09-09T13:56:44;5.43;;;1.85;;
43519;SDS011;46848;51.980;5.918;2022-09-09T13:59:11;3.35;;;1.33;;
43519;SDS011;46848;51.980;5.918;2022-09-09T14:01:38;4.72;;;1.92;;
43519;SDS011;46848;51.980;5.918;2022-09-09T14:04:05;4.55;;;1.80;;
43519;SDS011;46848;51.980;5.918;2022-09-09T14:06:32;3.15;;;1.08;;
43519;SDS011;46848;51.980;5.918;2022-09-09T14:09:00;6.32;;;1.30;;
43519;SDS011;46848;51.980;5.918;2022-09-09T14:11:25;4.68;;;1.30;;
43519;SDS011;46848;51.980;5.918;2022-09-09T14:13:51;5.25;;;0.93;;
43519;SDS011;46848;51.980;5.918;2022-09-09T14:16:17;2.17;;;0.60;;
43519;SDS011;46848;51.980;5.918;2022-09-09T14:18:43;2.85;;;0.68;;
43519;SDS011;46848;51.980;5.918;2022-09-09T14:21:10;4.93;;;1.23;;
43519;SDS011;46848;51.980;5.918;2022-09-09T14:23:37;5.38;;;1.08;;
43519;SDS011;46848;51.980;5.918;2022-09-09T14:26:06;3.17;;;0.80;;
43519;SDS011;46848;51.980;5.918;2022-09-09T14:28:32;3.60;;;0.80;;
43519;SDS011;46848;51.980;5.918;2022-09-09T14:31:01;3.95;;;1.73;;
43519;SDS011;46848;51.980;5.918;2022-09-09T14:33:29;6.43;;;1.75;;
43519;SDS011;46848;51.980;5.918;2022-09-09T14:35:56;4.95;;;1.33;;
43519;SDS011;46848;51.980;5.918;2022-09-09T14:38:22;4.72;;;1.23;;
43519;SDS011;46848;51.980;5.918;2022-09-09T14:40:48;4.10;;;1.20;;
43519;SDS011;46848;51.980;5.918;2022-09-09T14:43:13;4.45;;;1.10;;
43519;SDS011;46848;51.980;5.918;2022-09-09T14:45:39;6.20;;;1.42;;
43519;SDS011;46848;51.980;5.918;2022-09-09T14:48:05;5.20;;;1.33;;
43519;SDS011;46848;51.980;5.918;2022-09-09T14:50:31;4.82;;;1.23;;
43519;SDS011;46848;51.980;5.918;2022-09-09T14:52:56;4.20;;;1.40;;
43519;SDS011;46848;51.980;5.918;2022-09-09T14:55:22;6.05;;;1.40;;
43519;SDS011;46848;51.980;5.918;2022-09-09T14:57:48;4.60;;;1.27;;
43519;SDS011;46848;51.980;5.918;2022-09-09T15:00:14;4.90;;;1.42;;
43519;SDS011;46848;51.980;5.918;2022-09-09T15:02:40;3.90;;;1.15;;
43519;SDS011;46848;51.980;5.918;2022-09-09T15:05:06;5.10;;;1.20;;
43519;SDS011;46848;51.980;5.918;2022-09-09T15:07:33;4.40;;;0.90;;
43519;SDS011;46848;51.980;5.918;2022-09-09T15:09:59;3.47;;;1.00;;
43519;SDS011;46848;51.980;5.918;2022-09-09T15:12:24;4.63;;;0.95;;
43519;SDS011;46848;51.980;5.918;2022-09-09T15:14:50;6.65;;;1.63;;
43519;SDS011;46848;51.980;5.918;2022-09-09T15:17:16;5.85;;;1.10;;
43519;SDS011;46848;51.980;5.918;2022-09-09T15:19:41;4.30;;;1.10;;
43519;SDS011;46848;51.980;5.918;2022-09-09T15:22:07;4.43;;;1.48;;
43519;SDS011;46848;51.980;5.918;2022-09-09T15:24:34;6.25;;;1.33;;
43519;SDS011;46848;51.980;5.918;2022-09-09T15:27:00;4.13;;;1.25;;
43519;SDS011;46848;51.980;5.918;2022-09-09T15:29:27;4.28;;;1.27;;
43519;SDS011;46848;51.980;5.918;2022-09-09T15:31:53;4.78;;;1.20;;
43519;SDS011;46848;51.980;5.918;2022-09-09T15:34:22;6.28;;;1.42;;
43519;SDS011;46848;51.980;5.918;2022-09-09T15:36:48;6.32;;;1.40;;
43519;SDS011;46848;51.980;5.918;2022-09-09T15:39:15;6.13;;;1.63;;
43519;SDS011;46848;51.980;5.918;2022-09-09T15:41:42;6.80;;;1.42;;
43519;SDS011;46848;51.980;5.918;2022-09-09T15:44:09;5.88;;;1.58;;
43519;SDS011;46848;51.980;5.918;2022-09-09T15:46:40;6.93;;;1.60;;
43519;SDS011;46848;51.980;5.918;2022-09-09T15:49:10;8.52;;;1.83;;
43519;SDS011;46848;51.980;5.918;2022-09-09T15:51:42;4.35;;;1.20;;
43519;SDS011;46848;51.980;5.918;2022-09-09T15:54:09;4.10;;;1.23;;
43519;SDS011;46848;51.980;5.918;2022-09-09T15:56:41;4.60;;;1.20;;
43519;SDS011;46848;51.980;5.918;2022-09-09T15:59:07;4.22;;;1.40;;
43519;SDS011;46848;51.980;5.918;2022-09-09T16:01:33;3.95;;;1.00;;
43519;SDS011;46848;51.980;5.918;2022-09-09T16:03:59;3.63;;;1.05;;
43519;SDS011;46848;51.980;5.918;2022-09-09T16:06:25;5.30;;;1.40;;
43519;SDS011;46848;51.980;5.918;2022-09-09T16:08:54;8.90;;;1.98;;
43519;SDS011;46848;51.980;5.918;2022-09-09T16:11:25;3.58;;;1.00;;
43519;SDS011;46848;51.980;5.918;2022-09-09T16:13:52;4.72;;;1.30;;
43519;SDS011;46848;51.980;5.918;2022-09-09T16:16:20;2.65;;;0.90;;
43519;SDS011;46848;51.980;5.918;2022-09-09T16:18:50;3.20;;;1.02;;
43519;SDS011;46848;51.980;5.918;2022-09-09T16:21:30;3.63;;;1.15;;
43519;SDS011;46848;51.980;5.918;2022-09-09T16:23:59;4.10;;;1.08;;
43519;SDS011;46848;51.980;5.918;2022-09-09T16:26:26;4.78;;;1.27;;
43519;SDS011;46848;51.980;5.918;2022-09-09T16:28:52;7.45;;;1.50;;
43519;SDS011;46848;51.980;5.918;2022-09-09T16:31:19;4.68;;;1.25;;
43519;SDS011;46848;51.980;5.918;2022-09-09T16:33:46;3.47;;;1.20;;
43519;SDS011;46848;51.980;5.918;2022-09-09T16:36:17;3.55;;;0.93;;
43519;SDS011;46848;51.980;5.918;2022-09-09T16:38:45;3.45;;;1.45;;
43519;SDS011;46848;51.980;5.918;2022-09-09T16:41:12;5.55;;;1.50;;
43519;SDS011;46848;51.980;5.918;2022-09-09T16:43:39;5.03;;;1.25;;
43519;SDS011;46848;51.980;5.918;2022-09-09T16:46:26;8.65;;;1.50;;
43519;SDS011;46848;51.980;5.918;2022-09-09T16:48:52;5.43;;;1.40;;
43519;SDS011;46848;51.980;5.918;2022-09-09T16:51:21;6.25;;;2.00;;
43519;SDS011;46848;51.980;5.918;2022-09-09T16:53:49;4.15;;;1.38;;
43519;SDS011;46848;51.980;5.918;2022-09-09T16:56:17;3.80;;;1.02;;
43519;SDS011;46848;51.980;5.918;2022-09-09T16:58:48;1.75;;;0.90;;
43519;SDS011;46848;51.980;5.918;2022-09-09T17:01:20;2.40;;;1.00;;
43519;SDS011;46848;51.980;5.918;2022-09-09T17:03:46;2.97;;;1.17;;
43519;SDS011;46848;51.980;5.918;2022-09-09T17:06:12;2.58;;;1.30;;
43519;SDS011;46848;51.980;5.918;2022-09-09T17:08:39;2.67;;;0.73;;
43519;SDS011;46848;51.980;5.918;2022-09-09T17:11:16;1.92;;;1.00;;
43519;SDS011;46848;51.980;5.918;2022-09-09T17:13:43;2.10;;;0.88;;
43519;SDS011;46848;51.980;5.918;2022-09-09T17:16:11;4.07;;;1.02;;
43519;SDS011;46848;51.980;5.918;2022-09-09T17:18:37;1.90;;;0.93;;
43519;SDS011;46848;51.980;5.918;2022-09-09T17:21:11;3.20;;;1.13;;
43519;SDS011;46848;51.980;5.918;2022-09-09T17:23:39;3.58;;;1.00;;
43519;SDS011;46848;51.980;5.918;2022-09-09T17:26:06;4.05;;;1.48;;
43519;SDS011;46848;51.980;5.918;2022-09-09T17:28:34;6.35;;;1.10;;
43519;SDS011;46848;51.980;5.918;2022-09-09T17:31:01;4.78;;;1.38;;
43519;SDS011;46848;51.980;5.918;2022-09-09T17:33:31;3.75;;;1.23;;
43519;SDS011;46848;51.980;5.918;2022-09-09T17:36:02;2.83;;;1.00;;
43519;SDS011;46848;51.980;5.918;2022-09-09T17:38:32;2.97;;;1.23;;